sensor_id;sensor_type;location;lat;lon;timestamp;pressure;altitude;pressure_sealevel;temperature
68911;BMP180;55953;51.650;-0.522;2023-11-21T00:00:56;100572.20;;;10.90
68911;BMP180;55953;51.650;-0.522;2023-11-21T00:03:38;100572.40;;;10.80
68911;BMP180;55953;51.650;-0.522;2023-11-21T00:06:07;100575.80;;;10.82
68911;BMP180;55953;51.650;-0.522;2023-11-21T00:08:37;100583.00;;;10.84
68911;BMP180;55953;51.650;-0.522;2023-11-21T00:11:05;100586.00;;;10.82
68911;BMP180;55953;51.650;-0.522;2023-11-21T00:13:33;100585.20;;;10.90
68911;BMP180;55953;51.650;-0.522;2023-11-21T00:16:02;100593.80;;;10.90
68911;BMP180;55953;51.650;-0.522;2023-11-21T00:18:31;100601.80;;;10.90
68911;BMP180;55953;51.650;-0.522;2023-11-21T00:20:59;100603.00;;;10.90
68911;BMP180;55953;51.650;-0.522;2023-11-21T00:23:27;100608.60;;;10.90
68911;BMP180;55953;51.650;-0.522;2023-11-21T00:25:55;100609.80;;;10.98
68911;BMP180;55953;51.650;-0.522;2023-11-21T00:28:23;100617.60;;;11.00
68911;BMP180;55953;51.650;-0.522;2023-11-21T00:30:51;100620.20;;;11.00
68911;BMP180;55953;51.650;-0.522;2023-11-21T00:33:19;100621.60;;;11.00
68911;BMP180;55953;51.650;-0.522;2023-11-21T00:35:47;100630.00;;;11.00
68911;BMP180;55953;51.650;-0.522;2023-11-21T00:38:14;100631.80;;;10.96
68911;BMP180;55953;51.650;-0.522;2023-11-21T00:40:42;100641.20;;;10.92
68911;BMP180;55953;51.650;-0.522;2023-11-21T00:43:10;100641.00;;;10.90
68911;BMP180;55953;51.650;-0.522;2023-11-21T00:45:38;100651.00;;;10.94
68911;BMP180;55953;51.650;-0.522;2023-11-21T00:48:07;100647.80;;;11.00
68911;BMP180;55953;51.650;-0.522;2023-11-21T00:50:36;100650.20;;;10.96
68911;BMP180;55953;51.650;-0.522;2023-11-21T00:53:03;100646.80;;;10.90
68911;BMP180;55953;51.650;-0.522;2023-11-21T00:55:31;100647.80;;;10.90
68911;BMP180;55953;51.650;-0.522;2023-11-21T00:57:59;100649.20;;;10.90
68911;BMP180;55953;51.650;-0.522;2023-11-21T01:00:27;100646.60;;;10.90
68911;BMP180;55953;51.650;-0.522;2023-11-21T01:02:55;100645.80;;;10.90
68911;BMP180;55953;51.650;-0.522;2023-11-21T01:05:24;100648.20;;;10.90
68911;BMP180;55953;51.650;-0.522;2023-11-21T01:07:52;100647.60;;;10.80
68911;BMP180;55953;51.650;-0.522;2023-11-21T01:10:20;100658.00;;;10.82
68911;BMP180;55953;51.650;-0.522;2023-11-21T01:12:48;100657.00;;;10.80
68911;BMP180;55953;51.650;-0.522;2023-11-21T01:15:16;100662.60;;;10.86
68911;BMP180;55953;51.650;-0.522;2023-11-21T01:17:44;100662.40;;;10.90
68911;BMP180;55953;51.650;-0.522;2023-11-21T01:20:12;100667.20;;;10.90
68911;BMP180;55953;51.650;-0.522;2023-11-21T01:22:41;100673.40;;;10.90
68911;BMP180;55953;51.650;-0.522;2023-11-21T01:25:10;100672.40;;;10.90
68911;BMP180;55953;51.650;-0.522;2023-11-21T01:27:38;100680.40;;;10.90
68911;BMP180;55953;51.650;-0.522;2023-11-21T01:30:07;100685.00;;;10.90
68911;BMP180;55953;51.650;-0.522;2023-11-21T01:32:39;100684.40;;;10.90
68911;BMP180;55953;51.650;-0.522;2023-11-21T01:35:08;100688.20;;;10.90
68911;BMP180;55953;51.650;-0.522;2023-11-21T01:37:38;100689.40;;;10.90
68911;BMP180;55953;51.650;-0.522;2023-11-21T01:40:07;100690.80;;;10.90
68911;BMP180;55953;51.650;-0.522;2023-11-21T01:42:38;100698.60;;;10.90
68911;BMP180;55953;51.650;-0.522;2023-11-21T01:45:07;100705.20;;;10.92
68911;BMP180;55953;51.650;-0.522;2023-11-21T01:47:36;100713.60;;;10.98
68911;BMP180;55953;51.650;-0.522;2023-11-21T01:50:10;100719.80;;;11.00
68911;BMP180;55953;51.650;-0.522;2023-11-21T01:52:40;100715.60;;;11.00
68911;BMP180;55953;51.650;-0.522;2023-11-21T01:55:09;100717.40;;;11.00
68911;BMP180;55953;51.650;-0.522;2023-11-21T01:57:37;100715.40;;;11.00
68911;BMP180;55953;51.650;-0.522;2023-11-21T02:00:10;100718.80;;;11.00
68911;BMP180;55953;51.650;-0.522;2023-11-21T02:02:45;100721.20;;;11.00
68911;BMP180;55953;51.650;-0.522;2023-11-21T02:05:18;100726.40;;;11.00
68911;BMP180;55953;51.650;-0.522;2023-11-21T02:07:47;100731.80;;;11.02
68911;BMP180;55953;51.650;-0.522;2023-11-21T02:10:20;100731.60;;;11.10
68911;BMP180;55953;51.650;-0.522;2023-11-21T02:12:52;100731.20;;;11.10
68911;BMP180;55953;51.650;-0.522;2023-11-21T02:15:22;100742.80;;;11.10
68911;BMP180;55953;51.650;-0.522;2023-11-21T02:17:51;100733.80;;;11.04
68911;BMP180;55953;51.650;-0.522;2023-11-21T02:20:22;100733.20;;;11.10
68911;BMP180;55953;51.650;-0.522;2023-11-21T02:22:55;100739.80;;;11.10
68911;BMP180;55953;51.650;-0.522;2023-11-21T02:25:32;100745.40;;;11.10
68911;BMP180;55953;51.650;-0.522;2023-11-21T02:28:03;100750.00;;;11.02
68911;BMP180;55953;51.650;-0.522;2023-11-21T02:30:31;100754.80;;;11.08
68911;BMP180;55953;51.650;-0.522;2023-11-21T02:33:02;100758.80;;;11.10
68911;BMP180;55953;51.650;-0.522;2023-11-21T02:35:31;100763.40;;;11.10
68911;BMP180;55953;51.650;-0.522;2023-11-21T02:38:00;100766.80;;;11.10
68911;BMP180;55953;51.650;-0.522;2023-11-21T02:40:28;100772.40;;;11.10
68911;BMP180;55953;51.650;-0.522;2023-11-21T02:42:55;100771.20;;;11.10
68911;BMP180;55953;51.650;-0.522;2023-11-21T02:45:26;100778.80;;;11.12
68911;BMP180;55953;51.650;-0.522;2023-11-21T02:47:54;100775.80;;;11.20
68911;BMP180;55953;51.650;-0.522;2023-11-21T02:50:25;100776.40;;;11.10
68911;BMP180;55953;51.650;-0.522;2023-11-21T02:52:53;100779.40;;;11.16
68911;BMP180;55953;51.650;-0.522;2023-11-21T02:55:21;100786.00;;;11.20
68911;BMP180;55953;51.650;-0.522;2023-11-21T02:57:49;100792.80;;;11.20
68911;BMP180;55953;51.650;-0.522;2023-11-21T03:00:18;100801.20;;;11.12
68911;BMP180;55953;51.650;-0.522;2023-11-21T03:02:46;100802.40;;;11.10
68911;BMP180;55953;51.650;-0.522;2023-11-21T03:05:15;100806.00;;;11.04
68911;BMP180;55953;51.650;-0.522;2023-11-21T03:07:43;100817.20;;;11.00
68911;BMP180;55953;51.650;-0.522;2023-11-21T03:10:11;100822.00;;;10.92
68911;BMP180;55953;51.650;-0.522;2023-11-21T03:12:40;100816.80;;;10.90
68911;BMP180;55953;51.650;-0.522;2023-11-21T03:15:08;100823.60;;;10.82
68911;BMP180;55953;51.650;-0.522;2023-11-21T03:17:37;100830.60;;;10.80
68911;BMP180;55953;51.650;-0.522;2023-11-21T03:20:05;100829.20;;;10.80
68911;BMP180;55953;51.650;-0.522;2023-11-21T03:22:38;100828.60;;;10.80
68911;BMP180;55953;51.650;-0.522;2023-11-21T03:25:07;100829.00;;;10.80
68911;BMP180;55953;51.650;-0.522;2023-11-21T03:27:38;100828.20;;;10.74
68911;BMP180;55953;51.650;-0.522;2023-11-21T03:30:09;100831.00;;;10.80
68911;BMP180;55953;51.650;-0.522;2023-11-21T03:32:37;100828.60;;;10.80
68911;BMP180;55953;51.650;-0.522;2023-11-21T03:35:05;100827.80;;;10.80
68911;BMP180;55953;51.650;-0.522;2023-11-21T03:37:34;100837.40;;;10.80
68911;BMP180;55953;51.650;-0.522;2023-11-21T03:40:03;100836.80;;;10.80
68911;BMP180;55953;51.650;-0.522;2023-11-21T03:42:32;100842.80;;;10.80
68911;BMP180;55953;51.650;-0.522;2023-11-21T03:44:59;100847.60;;;10.74
68911;BMP180;55953;51.650;-0.522;2023-11-21T03:47:28;100853.60;;;10.70
68911;BMP180;55953;51.650;-0.522;2023-11-21T03:49:56;100866.20;;;10.70
68911;BMP180;55953;51.650;-0.522;2023-11-21T03:52:24;100865.00;;;10.70
68911;BMP180;55953;51.650;-0.522;2023-11-21T03:54:52;100868.00;;;10.66
68911;BMP180;55953;51.650;-0.522;2023-11-21T03:57:21;100872.80;;;10.60
68911;BMP180;55953;51.650;-0.522;2023-11-21T03:59:49;100875.00;;;10.60
68911;BMP180;55953;51.650;-0.522;2023-11-21T04:02:17;100877.00;;;10.60
68911;BMP180;55953;51.650;-0.522;2023-11-21T04:04:45;100873.00;;;10.50
68911;BMP180;55953;51.650;-0.522;2023-11-21T04:07:13;100877.20;;;10.50
68911;BMP180;55953;51.650;-0.522;2023-11-21T04:09:41;100879.00;;;10.44
68911;BMP180;55953;51.650;-0.522;2023-11-21T04:12:09;100880.40;;;10.46
68911;BMP180;55953;51.650;-0.522;2023-11-21T04:14:38;100884.00;;;10.44
68911;BMP180;55953;51.650;-0.522;2023-11-21T04:17:06;100897.40;;;10.40
68911;BMP180;55953;51.650;-0.522;2023-11-21T04:19:35;100902.00;;;10.40
68911;BMP180;55953;51.650;-0.522;2023-11-21T04:22:03;100902.80;;;10.40
68911;BMP180;55953;51.650;-0.522;2023-11-21T04:24:31;100913.20;;;10.40
68911;BMP180;55953;51.650;-0.522;2023-11-21T04:26:59;100924.40;;;10.40
68911;BMP180;55953;51.650;-0.522;2023-11-21T04:29:27;100928.00;;;10.38
68911;BMP180;55953;51.650;-0.522;2023-11-21T04:31:55;100934.80;;;10.40
68911;BMP180;55953;51.650;-0.522;2023-11-21T04:34:22;100937.40;;;10.32
68911;BMP180;55953;51.650;-0.522;2023-11-21T04:36:50;100938.20;;;10.30
68911;BMP180;55953;51.650;-0.522;2023-11-21T04:39:18;100939.60;;;10.22
68911;BMP180;55953;51.650;-0.522;2023-11-21T04:41:47;100936.60;;;10.20
68911;BMP180;55953;51.650;-0.522;2023-11-21T04:44:15;100931.60;;;10.18
68911;BMP180;55953;51.650;-0.522;2023-11-21T04:46:44;100932.40;;;10.10
68911;BMP180;55953;51.650;-0.522;2023-11-21T04:49:12;100944.20;;;10.10
68911;BMP180;55953;51.650;-0.522;2023-11-21T04:51:39;100946.20;;;10.10
68911;BMP180;55953;51.650;-0.522;2023-11-21T04:54:07;100952.80;;;10.10
68911;BMP180;55953;51.650;-0.522;2023-11-21T04:56:35;100950.60;;;10.08
68911;BMP180;55953;51.650;-0.522;2023-11-21T04:59:03;100951.40;;;10.10
68911;BMP180;55953;51.650;-0.522;2023-11-21T05:01:32;100950.00;;;10.10
68911;BMP180;55953;51.650;-0.522;2023-11-21T05:04:00;100959.40;;;10.10
68911;BMP180;55953;51.650;-0.522;2023-11-21T05:06:28;100965.40;;;10.10
68911;BMP180;55953;51.650;-0.522;2023-11-21T05:08:55;100963.00;;;10.10
68911;BMP180;55953;51.650;-0.522;2023-11-21T05:11:28;100959.20;;;10.10
68911;BMP180;55953;51.650;-0.522;2023-11-21T05:13:59;100965.20;;;10.10
68911;BMP180;55953;51.650;-0.522;2023-11-21T05:16:29;100972.40;;;10.10
68911;BMP180;55953;51.650;-0.522;2023-11-21T05:18:57;100967.40;;;10.10
68911;BMP180;55953;51.650;-0.522;2023-11-21T05:21:28;100966.20;;;10.10
68911;BMP180;55953;51.650;-0.522;2023-11-21T05:23:58;100971.20;;;10.10
68911;BMP180;55953;51.650;-0.522;2023-11-21T05:26:26;100977.80;;;10.12
68911;BMP180;55953;51.650;-0.522;2023-11-21T05:28:54;100981.20;;;10.18
68911;BMP180;55953;51.650;-0.522;2023-11-21T05:31:22;100987.80;;;10.20
68911;BMP180;55953;51.650;-0.522;2023-11-21T05:33:50;100988.00;;;10.20
68911;BMP180;55953;51.650;-0.522;2023-11-21T05:36:17;100994.00;;;10.20
68911;BMP180;55953;51.650;-0.522;2023-11-21T05:38:46;101008.80;;;10.20
68911;BMP180;55953;51.650;-0.522;2023-11-21T05:41:15;101018.00;;;10.20
68911;BMP180;55953;51.650;-0.522;2023-11-21T05:43:42;101021.60;;;10.12
68911;BMP180;55953;51.650;-0.522;2023-11-21T05:46:11;101020.40;;;10.10
68911;BMP180;55953;51.650;-0.522;2023-11-21T05:48:40;101037.60;;;10.10
68911;BMP180;55953;51.650;-0.522;2023-11-21T05:51:09;101044.60;;;10.10
68911;BMP180;55953;51.650;-0.522;2023-11-21T05:53:37;101052.40;;;10.08
68911;BMP180;55953;51.650;-0.522;2023-11-21T05:56:06;101051.40;;;10.00
68911;BMP180;55953;51.650;-0.522;2023-11-21T05:58:34;101050.80;;;10.00
68911;BMP180;55953;51.650;-0.522;2023-11-21T06:01:05;101057.00;;;10.00
68911;BMP180;55953;51.650;-0.522;2023-11-21T06:03:37;101055.60;;;10.00
68911;BMP180;55953;51.650;-0.522;2023-11-21T06:06:05;101073.60;;;10.00
68911;BMP180;55953;51.650;-0.522;2023-11-21T06:08:34;101071.40;;;9.90
68911;BMP180;55953;51.650;-0.522;2023-11-21T06:11:02;101075.20;;;9.90
68911;BMP180;55953;51.650;-0.522;2023-11-21T06:13:30;101080.20;;;9.92
68911;BMP180;55953;51.650;-0.522;2023-11-21T06:15:59;101081.60;;;9.90
68911;BMP180;55953;51.650;-0.522;2023-11-21T06:18:28;101084.60;;;9.92
68911;BMP180;55953;51.650;-0.522;2023-11-21T06:20:55;101082.40;;;9.90
68911;BMP180;55953;51.650;-0.522;2023-11-21T06:23:23;101085.00;;;9.90
68911;BMP180;55953;51.650;-0.522;2023-11-21T06:25:51;101085.80;;;9.90
68911;BMP180;55953;51.650;-0.522;2023-11-21T06:28:19;101087.40;;;9.90
68911;BMP180;55953;51.650;-0.522;2023-11-21T06:30:47;101082.60;;;9.90
68911;BMP180;55953;51.650;-0.522;2023-11-21T06:33:16;101106.40;;;9.80
68911;BMP180;55953;51.650;-0.522;2023-11-21T06:35:44;101097.60;;;9.80
68911;BMP180;55953;51.650;-0.522;2023-11-21T06:38:12;101098.00;;;9.80
68911;BMP180;55953;51.650;-0.522;2023-11-21T06:40:40;101087.20;;;9.80
68911;BMP180;55953;51.650;-0.522;2023-11-21T06:43:08;101097.80;;;9.80
68911;BMP180;55953;51.650;-0.522;2023-11-21T06:45:36;101102.40;;;9.80
68911;BMP180;55953;51.650;-0.522;2023-11-21T06:48:04;101110.00;;;9.80
68911;BMP180;55953;51.650;-0.522;2023-11-21T06:50:32;101112.80;;;9.80
68911;BMP180;55953;51.650;-0.522;2023-11-21T06:53:00;101117.40;;;9.80
68911;BMP180;55953;51.650;-0.522;2023-11-21T06:55:30;101120.20;;;9.80
68911;BMP180;55953;51.650;-0.522;2023-11-21T06:57:58;101120.80;;;9.80
68911;BMP180;55953;51.650;-0.522;2023-11-21T07:00:27;101121.20;;;9.80
68911;BMP180;55953;51.650;-0.522;2023-11-21T07:02:55;101127.00;;;9.80
68911;BMP180;55953;51.650;-0.522;2023-11-21T07:05:23;101133.00;;;9.80
68911;BMP180;55953;51.650;-0.522;2023-11-21T07:07:51;101134.00;;;9.80
68911;BMP180;55953;51.650;-0.522;2023-11-21T07:10:21;101132.40;;;9.80
68911;BMP180;55953;51.650;-0.522;2023-11-21T07:12:49;101138.00;;;9.80
68911;BMP180;55953;51.650;-0.522;2023-11-21T07:15:18;101148.00;;;9.78
68911;BMP180;55953;51.650;-0.522;2023-11-21T07:17:47;101149.00;;;9.80
68911;BMP180;55953;51.650;-0.522;2023-11-21T07:20:16;101157.80;;;9.78
68911;BMP180;55953;51.650;-0.522;2023-11-21T07:22:45;101151.60;;;9.80
68911;BMP180;55953;51.650;-0.522;2023-11-21T07:25:13;101161.00;;;9.80
68911;BMP180;55953;51.650;-0.522;2023-11-21T07:27:41;101165.20;;;9.80
68911;BMP180;55953;51.650;-0.522;2023-11-21T07:30:10;101173.00;;;9.80
68911;BMP180;55953;51.650;-0.522;2023-11-21T07:32:38;101172.60;;;9.80
68911;BMP180;55953;51.650;-0.522;2023-11-21T07:35:08;101179.80;;;9.80
68911;BMP180;55953;51.650;-0.522;2023-11-21T07:37:36;101181.00;;;9.80
68911;BMP180;55953;51.650;-0.522;2023-11-21T07:40:06;101188.40;;;9.80
68911;BMP180;55953;51.650;-0.522;2023-11-21T07:42:36;101193.00;;;9.80
68911;BMP180;55953;51.650;-0.522;2023-11-21T07:45:06;101192.00;;;9.80
68911;BMP180;55953;51.650;-0.522;2023-11-21T07:47:35;101202.60;;;9.80
68911;BMP180;55953;51.650;-0.522;2023-11-21T07:50:04;101204.40;;;9.86
68911;BMP180;55953;51.650;-0.522;2023-11-21T07:52:32;101204.80;;;9.90
68911;BMP180;55953;51.650;-0.522;2023-11-21T07:55:00;101199.20;;;9.90
68911;BMP180;55953;51.650;-0.522;2023-11-21T07:57:27;101204.40;;;9.90
68911;BMP180;55953;51.650;-0.522;2023-11-21T07:59:55;101210.00;;;9.90
68911;BMP180;55953;51.650;-0.522;2023-11-21T08:02:23;101216.60;;;9.90
68911;BMP180;55953;51.650;-0.522;2023-11-21T08:04:52;101218.20;;;9.90
68911;BMP180;55953;51.650;-0.522;2023-11-21T08:07:20;101216.80;;;9.90
68911;BMP180;55953;51.650;-0.522;2023-11-21T08:09:48;101227.80;;;9.92
68911;BMP180;55953;51.650;-0.522;2023-11-21T08:12:17;101238.60;;;10.00
68911;BMP180;55953;51.650;-0.522;2023-11-21T08:14:45;101245.20;;;10.00
68911;BMP180;55953;51.650;-0.522;2023-11-21T08:17:13;101248.00;;;10.00
68911;BMP180;55953;51.650;-0.522;2023-11-21T08:19:44;101253.00;;;10.10
68911;BMP180;55953;51.650;-0.522;2023-11-21T08:22:16;101254.80;;;10.10
68911;BMP180;55953;51.650;-0.522;2023-11-21T08:24:45;101255.00;;;10.10
68911;BMP180;55953;51.650;-0.522;2023-11-21T08:27:14;101259.20;;;10.20
68911;BMP180;55953;51.650;-0.522;2023-11-21T08:29:43;101259.20;;;10.20
68911;BMP180;55953;51.650;-0.522;2023-11-21T08:32:11;101258.80;;;10.20
68911;BMP180;55953;51.650;-0.522;2023-11-21T08:34:39;101261.20;;;10.12
68911;BMP180;55953;51.650;-0.522;2023-11-21T08:37:10;101263.80;;;10.10
68911;BMP180;55953;51.650;-0.522;2023-11-21T08:39:38;101265.00;;;10.10
68911;BMP180;55953;51.650;-0.522;2023-11-21T08:42:06;101267.40;;;10.10
68911;BMP180;55953;51.650;-0.522;2023-11-21T08:44:34;101266.80;;;10.10
68911;BMP180;55953;51.650;-0.522;2023-11-21T08:47:02;101269.00;;;10.10
68911;BMP180;55953;51.650;-0.522;2023-11-21T08:49:33;101273.60;;;10.08
68911;BMP180;55953;51.650;-0.522;2023-11-21T08:52:01;101267.00;;;10.02
68911;BMP180;55953;51.650;-0.522;2023-11-21T08:54:29;101275.20;;;10.00
68911;BMP180;55953;51.650;-0.522;2023-11-21T08:56:57;101274.00;;;9.92
68911;BMP180;55953;51.650;-0.522;2023-11-21T08:59:28;101284.00;;;10.00
68911;BMP180;55953;51.650;-0.522;2023-11-21T09:01:56;101289.80;;;10.00
68911;BMP180;55953;51.650;-0.522;2023-11-21T09:04:24;101293.00;;;10.00
68911;BMP180;55953;51.650;-0.522;2023-11-21T09:06:52;101295.00;;;10.04
68911;BMP180;55953;51.650;-0.522;2023-11-21T09:09:19;101297.40;;;10.10
68911;BMP180;55953;51.650;-0.522;2023-11-21T09:11:47;101303.00;;;10.10
68911;BMP180;55953;51.650;-0.522;2023-11-21T09:14:16;101304.60;;;10.10
68911;BMP180;55953;51.650;-0.522;2023-11-21T09:16:45;101304.60;;;10.20
68911;BMP180;55953;51.650;-0.522;2023-11-21T09:19:13;101310.40;;;10.30
68911;BMP180;55953;51.650;-0.522;2023-11-21T09:21:41;101305.60;;;10.30
68911;BMP180;55953;51.650;-0.522;2023-11-21T09:24:09;101304.80;;;10.30
68911;BMP180;55953;51.650;-0.522;2023-11-21T09:26:37;101309.40;;;10.38
68911;BMP180;55953;51.650;-0.522;2023-11-21T09:29:05;101318.40;;;10.30
68911;BMP180;55953;51.650;-0.522;2023-11-21T09:31:33;101324.00;;;10.30
68911;BMP180;55953;51.650;-0.522;2023-11-21T09:34:01;101324.40;;;10.30
68911;BMP180;55953;51.650;-0.522;2023-11-21T09:36:29;101323.60;;;10.32
68911;BMP180;55953;51.650;-0.522;2023-11-21T09:38:58;101327.00;;;10.40
68911;BMP180;55953;51.650;-0.522;2023-11-21T09:41:46;101325.20;;;10.40
68911;BMP180;55953;51.650;-0.522;2023-11-21T09:44:18;101329.40;;;10.40
68911;BMP180;55953;51.650;-0.522;2023-11-21T09:46:48;101336.40;;;10.42
68911;BMP180;55953;51.650;-0.522;2023-11-21T09:49:23;101330.80;;;10.50
68911;BMP180;55953;51.650;-0.522;2023-11-21T09:51:55;101341.80;;;10.60
68911;BMP180;55953;51.650;-0.522;2023-11-21T09:54:28;101347.20;;;10.60
68911;BMP180;55953;51.650;-0.522;2023-11-21T09:56:59;101352.00;;;10.64
68911;BMP180;55953;51.650;-0.522;2023-11-21T09:59:31;101353.80;;;10.70
68911;BMP180;55953;51.650;-0.522;2023-11-21T10:02:03;101358.20;;;10.70
68911;BMP180;55953;51.650;-0.522;2023-11-21T10:04:31;101357.60;;;10.60
68911;BMP180;55953;51.650;-0.522;2023-11-21T10:06:59;101358.20;;;10.60
68911;BMP180;55953;51.650;-0.522;2023-11-21T10:09:28;101358.60;;;10.70
68911;BMP180;55953;51.650;-0.522;2023-11-21T10:11:57;101363.20;;;10.70
68911;BMP180;55953;51.650;-0.522;2023-11-21T10:14:26;101356.00;;;10.70
68911;BMP180;55953;51.650;-0.522;2023-11-21T10:16:57;101357.60;;;10.70
68911;BMP180;55953;51.650;-0.522;2023-11-21T10:19:26;101363.20;;;10.70
68911;BMP180;55953;51.650;-0.522;2023-11-21T10:21:55;101366.20;;;10.74
68911;BMP180;55953;51.650;-0.522;2023-11-21T10:24:25;101364.20;;;10.84
68911;BMP180;55953;51.650;-0.522;2023-11-21T10:26:53;101370.40;;;10.90
68911;BMP180;55953;51.650;-0.522;2023-11-21T10:29:21;101371.40;;;10.90
68911;BMP180;55953;51.650;-0.522;2023-11-21T10:31:50;101377.80;;;11.00
68911;BMP180;55953;51.650;-0.522;2023-11-21T10:34:20;101372.20;;;11.00
68911;BMP180;55953;51.650;-0.522;2023-11-21T10:36:49;101365.40;;;11.00
68911;BMP180;55953;51.650;-0.522;2023-11-21T10:39:19;101370.60;;;11.10
68911;BMP180;55953;51.650;-0.522;2023-11-21T10:41:48;101377.00;;;11.10
68911;BMP180;55953;51.650;-0.522;2023-11-21T10:44:17;101377.40;;;11.10
68911;BMP180;55953;51.650;-0.522;2023-11-21T10:46:52;101381.00;;;11.10
68911;BMP180;55953;51.650;-0.522;2023-11-21T10:49:25;101384.20;;;11.10
68911;BMP180;55953;51.650;-0.522;2023-11-21T10:51:54;101388.40;;;11.20
68911;BMP180;55953;51.650;-0.522;2023-11-21T10:54:25;101383.60;;;11.30
68911;BMP180;55953;51.650;-0.522;2023-11-21T10:56:58;101379.80;;;11.30
68911;BMP180;55953;51.650;-0.522;2023-11-21T10:59:31;101386.40;;;11.30
68911;BMP180;55953;51.650;-0.522;2023-11-21T11:02:11;101391.20;;;11.40
68911;BMP180;55953;51.650;-0.522;2023-11-21T11:04:44;101393.00;;;11.40
68911;BMP180;55953;51.650;-0.522;2023-11-21T11:07:15;101383.20;;;11.40
68911;BMP180;55953;51.650;-0.522;2023-11-21T11:09:44;101392.20;;;11.50
68911;BMP180;55953;51.650;-0.522;2023-11-21T11:12:13;101384.60;;;11.50
68911;BMP180;55953;51.650;-0.522;2023-11-21T11:14:42;101387.80;;;11.60
68911;BMP180;55953;51.650;-0.522;2023-11-21T11:17:13;101389.60;;;11.70
68911;BMP180;55953;51.650;-0.522;2023-11-21T11:19:42;101396.00;;;11.80
68911;BMP180;55953;51.650;-0.522;2023-11-21T11:22:36;101387.20;;;11.90
68911;BMP180;55953;51.650;-0.522;2023-11-21T11:28:27;101393.40;;;12.00
68911;BMP180;55953;51.650;-0.522;2023-11-21T11:31:08;101400.80;;;12.10
68911;BMP180;55953;51.650;-0.522;2023-11-21T11:33:48;101394.00;;;12.00
68911;BMP180;55953;51.650;-0.522;2023-11-21T11:36:48;101398.00;;;11.90
68911;BMP180;55953;51.650;-0.522;2023-11-21T11:39:39;101396.80;;;11.90
68911;BMP180;55953;51.650;-0.522;2023-11-21T11:42:15;101404.60;;;11.92
68911;BMP180;55953;51.650;-0.522;2023-11-21T11:47:29;101397.40;;;11.90
68911;BMP180;55953;51.650;-0.522;2023-11-21T11:50:04;101407.00;;;11.90
68911;BMP180;55953;51.650;-0.522;2023-11-21T11:52:50;101415.80;;;11.80
68911;BMP180;55953;51.650;-0.522;2023-11-21T11:55:21;101418.80;;;11.70
68911;BMP180;55953;51.650;-0.522;2023-11-21T11:57:52;101419.00;;;11.70
68911;BMP180;55953;51.650;-0.522;2023-11-21T12:02:56;101425.00;;;11.70
68911;BMP180;55953;51.650;-0.522;2023-11-21T12:05:29;101423.80;;;11.64
68911;BMP180;55953;51.650;-0.522;2023-11-21T12:08:03;101429.60;;;11.60
68911;BMP180;55953;51.650;-0.522;2023-11-21T12:10:33;101436.60;;;11.58
68911;BMP180;55953;51.650;-0.522;2023-11-21T12:13:11;101438.20;;;11.50
68911;BMP180;55953;51.650;-0.522;2023-11-21T12:15:42;101442.20;;;11.50
68911;BMP180;55953;51.650;-0.522;2023-11-21T12:18:10;101446.40;;;11.40
68911;BMP180;55953;51.650;-0.522;2023-11-21T12:20:38;101465.40;;;11.40
68911;BMP180;55953;51.650;-0.522;2023-11-21T12:23:08;101460.80;;;11.30
68911;BMP180;55953;51.650;-0.522;2023-11-21T12:25:37;101458.60;;;11.26
68911;BMP180;55953;51.650;-0.522;2023-11-21T12:28:09;101466.20;;;11.30
68911;BMP180;55953;51.650;-0.522;2023-11-21T12:30:38;101465.00;;;11.30
68911;BMP180;55953;51.650;-0.522;2023-11-21T12:33:07;101474.40;;;11.20
68911;BMP180;55953;51.650;-0.522;2023-11-21T12:35:37;101481.80;;;11.18
68911;BMP180;55953;51.650;-0.522;2023-11-21T12:38:05;101481.20;;;11.20
68911;BMP180;55953;51.650;-0.522;2023-11-21T12:40:34;101491.20;;;11.20
68911;BMP180;55953;51.650;-0.522;2023-11-21T12:43:02;101496.40;;;11.20
68911;BMP180;55953;51.650;-0.522;2023-11-21T12:45:32;101491.40;;;11.20
68911;BMP180;55953;51.650;-0.522;2023-11-21T12:48:02;101495.80;;;11.28
68911;BMP180;55953;51.650;-0.522;2023-11-21T12:50:35;101499.60;;;11.30
68911;BMP180;55953;51.650;-0.522;2023-11-21T12:53:11;101512.40;;;11.28
68911;BMP180;55953;51.650;-0.522;2023-11-21T12:55:40;101518.20;;;11.20
68911;BMP180;55953;51.650;-0.522;2023-11-21T12:58:10;101523.40;;;11.30
68911;BMP180;55953;51.650;-0.522;2023-11-21T13:00:45;101535.20;;;11.38
68911;BMP180;55953;51.650;-0.522;2023-11-21T13:03:15;101530.60;;;11.40
68911;BMP180;55953;51.650;-0.522;2023-11-21T13:05:48;101538.40;;;11.24
68911;BMP180;55953;51.650;-0.522;2023-11-21T13:08:24;101539.00;;;11.14
68911;BMP180;55953;51.650;-0.522;2023-11-21T13:10:54;101539.00;;;11.10
68911;BMP180;55953;51.650;-0.522;2023-11-21T13:13:28;101542.60;;;11.10
68911;BMP180;55953;51.650;-0.522;2023-11-21T13:15:59;101548.40;;;11.10
68911;BMP180;55953;51.650;-0.522;2023-11-21T13:18:34;101551.60;;;11.10
68911;BMP180;55953;51.650;-0.522;2023-11-21T13:21:04;101556.40;;;10.90
68911;BMP180;55953;51.650;-0.522;2023-11-21T13:23:42;101566.40;;;10.90
68911;BMP180;55953;51.650;-0.522;2023-11-21T13:26:10;101574.00;;;10.76
68911;BMP180;55953;51.650;-0.522;2023-11-21T13:28:39;101573.80;;;10.60
68911;BMP180;55953;51.650;-0.522;2023-11-21T13:31:10;101581.20;;;10.60
68911;BMP180;55953;51.650;-0.522;2023-11-21T13:33:49;101587.00;;;10.42
68911;BMP180;55953;51.650;-0.522;2023-11-21T13:36:24;101593.40;;;10.30
68911;BMP180;55953;51.650;-0.522;2023-11-21T13:38:52;101598.20;;;10.20
68911;BMP180;55953;51.650;-0.522;2023-11-21T13:41:20;101592.00;;;10.20
68911;BMP180;55953;51.650;-0.522;2023-11-21T13:43:57;101599.00;;;10.20
68911;BMP180;55953;51.650;-0.522;2023-11-21T13:46:33;101600.60;;;10.20
68911;BMP180;55953;51.650;-0.522;2023-11-21T13:49:05;101604.60;;;10.16
68911;BMP180;55953;51.650;-0.522;2023-11-21T13:51:38;101612.40;;;10.20
68911;BMP180;55953;51.650;-0.522;2023-11-21T13:54:12;101621.00;;;10.20
68911;BMP180;55953;51.650;-0.522;2023-11-21T13:56:41;101628.60;;;10.20
68911;BMP180;55953;51.650;-0.522;2023-11-21T13:59:13;101629.00;;;10.14
68911;BMP180;55953;51.650;-0.522;2023-11-21T14:01:56;101631.40;;;10.10
68911;BMP180;55953;51.650;-0.522;2023-11-21T14:04:31;101637.00;;;10.10
68911;BMP180;55953;51.650;-0.522;2023-11-21T14:07:23;101641.20;;;10.10
68911;BMP180;55953;51.650;-0.522;2023-11-21T14:10:04;101635.80;;;10.10